createdAt,value
2022-08-26T00:02:37.000Z,100
2022-08-26T00:07:34.000Z,100
2022-08-26T00:12:47.000Z,100
2022-08-26T00:17:36.000Z,100
2022-08-26T00:22:34.000Z,100
2022-08-26T00:27:35.000Z,100
2022-08-26T00:32:36.000Z,100
2022-08-26T00:37:35.000Z,100
2022-08-26T00:42:35.000Z,100
2022-08-26T00:47:35.000Z,100
2022-08-26T00:52:35.000Z,100
2022-08-26T00:57:36.000Z,100
2022-08-26T01:02:35.000Z,100
2022-08-26T01:07:35.000Z,100
2022-08-26T01:12:35.000Z,100
2022-08-26T01:22:38.000Z,100
2022-08-26T01:27:35.000Z,100
2022-08-26T01:32:35.000Z,100
2022-08-26T01:37:34.000Z,100
2022-08-26T01:42:34.000Z,100
2022-08-26T01:47:35.000Z,100
2022-08-26T01:52:38.000Z,100
2022-08-26T01:57:35.000Z,100
2022-08-26T02:02:35.000Z,100
2022-08-26T02:07:37.000Z,100
2022-08-26T02:12:36.000Z,100
2022-08-26T02:17:35.000Z,100
2022-08-26T02:22:35.000Z,100
2022-08-26T02:27:38.000Z,100
2022-08-26T02:32:37.000Z,100
2022-08-26T02:37:35.000Z,100
2022-08-26T02:42:35.000Z,100
2022-08-26T02:47:34.000Z,100
2022-08-26T02:52:34.000Z,100
2022-08-26T02:57:35.000Z,100
2022-08-26T03:07:35.000Z,100
2022-08-26T03:12:35.000Z,100
2022-08-26T03:17:37.000Z,100
2022-08-26T03:22:34.000Z,100
2022-08-26T03:27:35.000Z,100
2022-08-26T03:32:37.000Z,100
2022-08-26T03:37:35.000Z,100
2022-08-26T03:42:34.000Z,100
2022-08-26T03:47:35.000Z,100
2022-08-26T03:52:35.000Z,100
2022-08-26T03:57:34.000Z,100
2022-08-26T04:07:35.000Z,100
2022-08-26T04:12:36.000Z,100
2022-08-26T04:17:35.000Z,97.73
2022-08-26T04:22:35.000Z,98.53
2022-08-26T04:27:35.000Z,96.09
2022-08-26T04:32:34.000Z,90.84
2022-08-26T04:37:35.000Z,87.71
2022-08-26T04:42:36.000Z,84.34
2022-08-26T04:47:40.000Z,82.29
2022-08-26T04:52:35.000Z,77.85
2022-08-26T04:57:35.000Z,75.43
2022-08-26T05:02:35.000Z,74.45
2022-08-26T05:07:35.000Z,69.39
2022-08-26T05:12:34.000Z,65.51
2022-08-26T05:17:35.000Z,62.8
2022-08-26T05:22:35.000Z,61.07
2022-08-26T05:27:34.000Z,61.07
2022-08-26T05:32:34.000Z,59.88
2022-08-26T05:37:35.000Z,56.85
2022-08-26T05:42:34.000Z,45.9
2022-08-26T05:47:35.000Z,39.34
2022-08-26T05:52:36.000Z,32.27
2022-08-26T05:57:35.000Z,26.96
2022-08-26T06:02:35.000Z,23.59
2022-08-26T06:07:35.000Z,21.67
2022-08-26T06:12:35.000Z,20.28
2022-08-26T06:17:35.000Z,18.54
2022-08-26T06:27:42.000Z,17.76
2022-08-26T06:32:35.000Z,16.58
2022-08-26T06:37:35.000Z,15.72
2022-08-26T06:42:34.000Z,15.33
2022-08-26T06:47:35.000Z,14.68
2022-08-26T06:52:34.000Z,14.15
2022-08-26T06:57:35.000Z,13.55
2022-08-26T07:02:38.000Z,13.55
2022-08-26T07:12:35.000Z,13.14
2022-08-26T07:17:35.000Z,13.38
2022-08-26T07:22:35.000Z,13.02
2022-08-26T07:27:35.000Z,12.67
2022-08-26T07:32:35.000Z,12.24
2022-08-26T07:37:35.000Z,11.5
2022-08-26T07:42:35.000Z,10.85
2022-08-26T07:47:36.000Z,10.38
2022-08-26T07:52:37.000Z,10.38
2022-08-26T07:57:34.000Z,10.5
2022-08-26T08:02:35.000Z,10.39
2022-08-26T08:07:55.000Z,9.87
2022-08-26T08:12:35.000Z,9.46
2022-08-26T08:22:37.000Z,8.9
2022-08-26T08:27:35.000Z,8.9
2022-08-26T08:32:35.000Z,9.38
2022-08-26T08:37:35.000Z,9.21
2022-08-26T08:42:34.000Z,8.74
2022-08-26T08:47:34.000Z,8.54
2022-08-26T08:52:36.000Z,8.55
2022-08-26T08:57:35.000Z,9.04
2022-08-26T09:02:36.000Z,9.07
2022-08-26T09:07:36.000Z,10.29
2022-08-26T09:12:40.000Z,13
2022-08-26T09:17:35.000Z,14.76
2022-08-26T09:22:34.000Z,14.76
2022-08-26T09:27:35.000Z,16.54
2022-08-26T09:32:35.000Z,17.25
2022-08-26T09:37:34.000Z,17.9
2022-08-26T09:42:35.000Z,18.43
2022-08-26T09:47:34.000Z,18.48
2022-08-26T09:52:34.000Z,19.17
2022-08-26T09:57:34.000Z,19.72
2022-08-26T10:02:35.000Z,19.58
2022-08-26T10:07:34.000Z,19.23
2022-08-26T10:12:35.000Z,19.3
2022-08-26T10:17:35.000Z,19.62
2022-08-26T10:22:35.000Z,18.73
2022-08-26T10:27:34.000Z,18.07
2022-08-26T10:32:35.000Z,19.59
2022-08-26T10:37:35.000Z,19.59
2022-08-26T10:42:34.000Z,19.67
2022-08-26T10:47:35.000Z,19.1
2022-08-26T10:52:39.000Z,18.72
2022-08-26T10:57:35.000Z,18.82
2022-08-26T11:02:35.000Z,19.08
2022-08-26T11:07:35.000Z,19.44
2022-08-26T11:12:34.000Z,19.17
2022-08-26T11:17:35.000Z,18.7
2022-08-26T11:22:35.000Z,17.82
2022-08-26T11:27:35.000Z,16.88
2022-08-26T11:32:35.000Z,17.02
2022-08-26T11:37:35.000Z,16.81
2022-08-26T11:42:37.000Z,16.41
2022-08-26T11:47:35.000Z,17.49
2022-08-26T11:52:35.000Z,17.49
2022-08-26T11:57:35.000Z,18.08
2022-08-26T12:02:36.000Z,18.13
2022-08-26T12:07:35.000Z,18.39
2022-08-26T12:12:36.000Z,17.94
2022-08-26T12:17:35.000Z,18.39
2022-08-26T12:22:34.000Z,17.87
2022-08-26T12:27:35.000Z,17.43
2022-08-26T12:32:35.000Z,17.23
2022-08-26T12:37:34.000Z,17.65
2022-08-26T12:42:35.000Z,18.38
2022-08-26T12:47:52.000Z,18.9
2022-08-26T12:52:35.000Z,19.84
2022-08-26T12:57:35.000Z,20.59
2022-08-26T13:02:35.000Z,20.81
2022-08-26T13:07:35.000Z,20.81
2022-08-26T13:12:35.000Z,20.86
2022-08-26T13:17:35.000Z,20.97
2022-08-26T13:22:35.000Z,21.08
2022-08-26T13:27:35.000Z,21.4
2022-08-26T13:32:37.000Z,20.39
2022-08-26T13:37:45.000Z,20.24
2022-08-26T13:42:34.000Z,20.86
2022-08-26T13:47:34.000Z,21.05
2022-08-26T13:52:41.000Z,20.88
2022-08-26T13:57:35.000Z,20.91
2022-08-26T14:02:34.000Z,20.81
2022-08-26T14:07:34.000Z,21.29
2022-08-26T14:12:35.000Z,21.39
2022-08-26T14:17:35.000Z,21.39
2022-08-26T14:22:35.000Z,21.65
2022-08-26T14:32:35.000Z,21.88
2022-08-26T14:37:35.000Z,22.07
2022-08-26T14:42:35.000Z,22.39
2022-08-26T14:47:35.000Z,22.39
2022-08-26T14:52:35.000Z,22.52
2022-08-26T14:57:35.000Z,22.54
2022-08-26T15:02:50.000Z,22.62
2022-08-26T15:07:34.000Z,22.94
2022-08-26T15:12:34.000Z,23.22
2022-08-26T15:17:34.000Z,23.14
2022-08-26T15:22:39.000Z,23.75
2022-08-26T15:27:35.000Z,23.79
2022-08-26T15:32:35.000Z,23.77
2022-08-26T15:37:35.000Z,24.38
2022-08-26T15:47:34.000Z,24.45
2022-08-26T15:52:35.000Z,24.78
2022-08-26T15:57:36.000Z,25.26
2022-08-26T16:02:41.000Z,25.68
2022-08-26T16:07:34.000Z,26.57
2022-08-26T16:12:35.000Z,26.94
2022-08-26T16:17:35.000Z,27.58
2022-08-26T16:22:38.000Z,28.73
2022-08-26T16:27:34.000Z,28.73
2022-08-26T16:32:41.000Z,29.78
2022-08-26T16:37:35.000Z,30.79
2022-08-26T16:42:34.000Z,31.81
2022-08-26T16:47:35.000Z,33.05
2022-08-26T16:52:40.000Z,33.79
2022-08-26T16:57:35.000Z,34.36
2022-08-26T17:02:35.000Z,35.13
2022-08-26T17:07:35.000Z,35.87
2022-08-26T17:12:34.000Z,36.44
2022-08-26T17:17:34.000Z,37.46
2022-08-26T17:22:34.000Z,38.11
2022-08-26T17:27:35.000Z,38.6
2022-08-26T17:32:35.000Z,39.75
2022-08-26T17:37:35.000Z,39.75
2022-08-26T17:47:34.000Z,40.34
2022-08-26T17:52:35.000Z,41.52
2022-08-26T17:57:34.000Z,42.22
2022-08-26T18:12:37.000Z,42.91
2022-08-26T18:17:35.000Z,45.24
2022-08-26T18:22:35.000Z,46.52
2022-08-26T18:27:34.000Z,47.39
2022-08-26T18:32:35.000Z,47.25
2022-08-26T18:37:41.000Z,48.33
2022-08-26T18:42:35.000Z,49.49
2022-08-26T18:47:34.000Z,50.79
2022-08-26T18:57:35.000Z,53.47
2022-08-26T19:02:35.000Z,55.1
2022-08-26T19:07:35.000Z,56.5
2022-08-26T19:12:37.000Z,57.9
2022-08-26T19:17:35.000Z,57.9
2022-08-26T19:22:34.000Z,58.71
2022-08-26T19:27:34.000Z,59.15
2022-08-26T19:32:35.000Z,59.05
2022-08-26T19:37:35.000Z,58.42
2022-08-26T19:42:34.000Z,60.79
2022-08-26T19:47:34.000Z,65.11
2022-08-26T19:52:40.000Z,65.73
2022-08-26T19:57:35.000Z,65.85
2022-08-26T20:02:35.000Z,65.75
2022-08-26T20:07:34.000Z,65.91
2022-08-26T20:12:35.000Z,66.3
2022-08-26T20:17:35.000Z,68.08
2022-08-26T20:22:35.000Z,69.34
2022-08-26T20:27:35.000Z,72.81
2022-08-26T20:32:35.000Z,72.81
2022-08-26T20:37:35.000Z,77.96
2022-08-26T20:42:35.000Z,79.97
2022-08-26T20:47:34.000Z,80.19
2022-08-26T20:52:34.000Z,77.91
2022-08-26T20:57:34.000Z,75.21
2022-08-26T21:02:35.000Z,73.18
2022-08-26T21:07:35.000Z,73.53
2022-08-26T21:12:35.000Z,74.02
2022-08-26T21:17:35.000Z,74.34
2022-08-26T21:22:35.000Z,74.91
2022-08-26T21:27:37.000Z,76.43
2022-08-26T21:32:35.000Z,78.3
2022-08-26T21:37:34.000Z,80.51
2022-08-26T21:42:35.000Z,82.21
2022-08-26T21:47:34.000Z,82.21
2022-08-26T21:52:34.000Z,81.75
2022-08-26T21:57:34.000Z,80.32
2022-08-26T22:02:34.000Z,79.65
2022-08-26T22:07:35.000Z,78.79
2022-08-26T22:12:35.000Z,85.52
2022-08-26T22:17:35.000Z,94.61
2022-08-26T22:22:35.000Z,96.68
2022-08-26T22:27:35.000Z,92.89
2022-08-26T22:32:34.000Z,93.65
2022-08-26T22:37:35.000Z,97.46
2022-08-26T22:42:35.000Z,99.81
2022-08-26T22:47:35.000Z,100
2022-08-26T22:52:34.000Z,100
2022-08-26T22:57:34.000Z,100
2022-08-26T23:02:34.000Z,100
2022-08-26T23:07:34.000Z,99.14
2022-08-26T23:12:35.000Z,99.75
2022-08-26T23:17:35.000Z,100
2022-08-26T23:22:34.000Z,100
2022-08-26T23:27:35.000Z,100
2022-08-26T23:32:34.000Z,100
2022-08-26T23:37:36.000Z,100
2022-08-26T23:42:39.000Z,100
2022-08-26T23:47:35.000Z,100
2022-08-26T23:52:35.000Z,100
2022-08-26T23:57:35.000Z,100
